createdAt,value
2018-05-21T00:00:30.045Z,75.54
2018-05-21T00:03:34.132Z,75.69
2018-05-21T00:06:37.442Z,75.86
2018-05-21T00:09:40.770Z,76.12
2018-05-21T00:12:44.069Z,76.04
2018-05-21T00:15:47.389Z,76.50
2018-05-21T00:18:50.690Z,76.63
2018-05-21T00:21:54.001Z,76.77
2018-05-21T00:24:57.305Z,76.93
2018-05-21T00:28:00.621Z,77.06
2018-05-21T00:31:03.926Z,76.97
2018-05-21T00:34:08.010Z,76.87
2018-05-21T00:37:11.318Z,76.63
2018-05-21T00:40:14.649Z,76.99
2018-05-21T00:43:17.958Z,77.16
2018-05-21T00:46:21.277Z,77.24
2018-05-21T00:49:24.573Z,77.01
2018-05-21T00:52:27.898Z,76.86
2018-05-21T00:55:37.801Z,77.01
2018-05-21T00:58:41.121Z,76.88
2018-05-21T01:01:44.433Z,76.88
2018-05-21T01:04:47.741Z,76.51
2018-05-21T01:07:51.053Z,76.63
2018-05-21T01:10:55.137Z,76.83
2018-05-21T01:13:58.434Z,76.89
2018-05-21T01:17:01.763Z,76.96
2018-05-21T01:20:05.833Z,77.43
2018-05-21T01:23:09.149Z,77.68
2018-05-21T01:26:12.454Z,77.78
2018-05-21T01:29:15.770Z,77.63
2018-05-21T01:32:19.837Z,77.64
2018-05-21T01:35:23.187Z,77.58
2018-05-21T01:38:26.481Z,77.41
2018-05-21T01:41:30.558Z,77.18
2018-05-21T01:44:33.857Z,76.90
2018-05-21T01:47:37.168Z,77.09
2018-05-21T01:50:40.468Z,77.11
2018-05-21T01:53:43.797Z,76.95
2018-05-21T01:56:47.093Z,76.66
2018-05-21T01:59:50.412Z,76.68
2018-05-21T02:02:53.711Z,76.88
2018-05-21T02:05:57.022Z,76.93
2018-05-21T02:09:00.337Z,76.91
2018-05-21T02:12:03.657Z,76.77
2018-05-21T02:15:07.774Z,76.66
2018-05-21T02:18:11.069Z,76.56
2018-05-21T02:21:15.142Z,76.57
2018-05-21T02:24:18.453Z,76.53
2018-05-21T02:27:21.767Z,76.76
2018-05-21T02:30:25.855Z,76.91
2018-05-21T02:33:29.155Z,77.41
2018-05-21T02:36:32.469Z,78.03
2018-05-21T02:39:36.542Z,78.43
2018-05-21T02:42:39.867Z,78.70
2018-05-21T02:45:43.169Z,78.76
2018-05-21T02:48:46.500Z,79.04
2018-05-21T02:51:49.806Z,79.81
2018-05-21T02:54:53.141Z,80.21
2018-05-21T02:57:56.445Z,80.49
2018-05-21T03:00:59.757Z,80.63
2018-05-21T03:04:03.077Z,80.85
2018-05-21T03:07:06.383Z,80.89
2018-05-21T03:10:09.704Z,80.98
2018-05-21T03:13:12.997Z,81.12
2018-05-21T03:16:16.305Z,81.06
2018-05-21T03:19:19.605Z,80.55
2018-05-21T03:22:22.921Z,80.81
2018-05-21T03:25:26.221Z,81.16
2018-05-21T03:28:29.553Z,81.66
2018-05-21T03:31:32.848Z,82.30
2018-05-21T03:34:36.156Z,82.92
2018-05-21T03:37:39.489Z,83.23
2018-05-21T03:40:42.793Z,83.33
2018-05-21T03:43:46.121Z,83.48
2018-05-21T03:46:50.190Z,83.74
2018-05-21T03:49:53.510Z,84.27
2018-05-21T03:52:56.822Z,84.54
2018-05-21T03:56:00.129Z,84.58
2018-05-21T03:59:21.137Z,84.64
2018-05-21T04:02:43.528Z,84.45
2018-05-21T04:05:46.843Z,84.26
2018-05-21T04:08:50.168Z,84.03
2018-05-21T04:11:54.316Z,84.01
2018-05-21T04:14:57.585Z,84.21
2018-05-21T04:18:01.708Z,84.36
2018-05-21T04:21:05.013Z,84.48
2018-05-21T04:24:08.351Z,84.70
2018-05-21T04:27:11.650Z,84.59
2018-05-21T04:30:14.961Z,84.37
2018-05-21T04:33:18.277Z,84.48
2018-05-21T04:36:22.377Z,84.44
2018-05-21T04:39:25.680Z,84.51
2018-05-21T04:42:29.762Z,84.20
2018-05-21T04:45:33.070Z,84.21
2018-05-21T04:48:36.388Z,84.00
2018-05-21T04:51:39.705Z,83.78
2018-05-21T04:54:43.768Z,83.80
2018-05-21T04:57:47.090Z,83.70
2018-05-21T05:00:50.391Z,83.51
2018-05-21T05:03:54.473Z,83.54
2018-05-21T05:06:57.786Z,83.65
2018-05-21T05:10:01.136Z,83.74
2018-05-21T05:13:05.210Z,83.64
2018-05-21T05:16:09.298Z,83.62
2018-05-21T05:19:12.610Z,83.84
2018-05-21T05:22:15.912Z,83.66
2018-05-21T05:25:19.233Z,83.57
2018-05-21T05:28:23.314Z,83.39
2018-05-21T05:31:26.617Z,83.21
2018-05-21T05:34:29.930Z,82.70
2018-05-21T05:37:33.998Z,82.60
2018-05-21T05:40:37.337Z,82.57
2018-05-21T05:43:41.410Z,82.50
2018-05-21T05:46:44.718Z,82.20
2018-05-21T05:49:48.045Z,81.58
2018-05-21T05:52:52.121Z,81.30
2018-05-21T05:55:55.459Z,81.03
2018-05-21T05:58:59.540Z,80.36
2018-05-21T06:02:02.849Z,79.90
2018-05-21T06:05:06.194Z,79.74
2018-05-21T06:08:09.493Z,79.54
2018-05-21T06:11:12.801Z,78.95
2018-05-21T06:14:16.106Z,78.65
2018-05-21T06:17:19.427Z,77.84
2018-05-21T06:20:22.729Z,77.40
2018-05-21T06:23:26.041Z,77.24
2018-05-21T06:26:30.122Z,76.08
2018-05-21T06:29:33.437Z,76.10
2018-05-21T06:32:36.738Z,75.74
2018-05-21T06:35:40.054Z,75.26
2018-05-21T06:38:44.150Z,74.25
2018-05-21T06:41:47.462Z,73.56
2018-05-21T06:44:50.800Z,72.38
2018-05-21T06:47:54.100Z,72.74
2018-05-21T06:50:57.408Z,71.53
2018-05-21T06:54:00.710Z,72.31
2018-05-21T06:57:04.025Z,71.71
2018-05-21T07:00:07.346Z,70.33
2018-05-21T07:03:11.422Z,70.77
2018-05-21T07:06:14.728Z,69.23
2018-05-21T07:09:18.025Z,68.05
2018-05-21T07:12:21.342Z,68.05
2018-05-21T07:15:25.405Z,67.44
2018-05-21T07:18:28.721Z,67.92
2018-05-21T07:21:32.026Z,67.57
2018-05-21T07:24:35.339Z,67.05
2018-05-21T07:27:39.417Z,66.83
2018-05-21T07:30:42.729Z,66.22
2018-05-21T07:33:46.037Z,65.41
2018-05-21T07:36:49.334Z,63.83
2018-05-21T07:39:52.645Z,61.63
2018-05-21T07:42:56.725Z,61.66
2018-05-21T07:46:00.026Z,61.29
2018-05-21T07:49:03.343Z,61.34
2018-05-21T07:52:06.658Z,60.04
2018-05-21T07:55:09.978Z,59.75
2018-05-21T07:58:13.304Z,60.63
2018-05-21T08:01:16.613Z,60.02
2018-05-21T08:04:19.917Z,60.36
2018-05-21T08:07:23.229Z,60.13
2018-05-21T08:10:27.326Z,58.84
2018-05-21T08:13:30.629Z,58.75
2018-05-21T08:16:33.954Z,58.56
2018-05-21T08:19:37.269Z,58.32
2018-05-21T08:22:40.583Z,57.19
2018-05-21T08:25:43.896Z,57.13
2018-05-21T08:28:47.223Z,56.55
2018-05-21T08:31:50.530Z,55.94
2018-05-21T08:34:54.614Z,55.76
2018-05-21T08:37:57.958Z,55.63
2018-05-21T08:41:01.262Z,56.26
2018-05-21T08:44:04.577Z,55.78
2018-05-21T08:47:07.891Z,56.87
2018-05-21T08:50:11.212Z,54.83
2018-05-21T08:53:15.288Z,55.89
2018-05-21T08:56:18.631Z,54.29
2018-05-21T08:59:22.710Z,54.12
2018-05-21T09:02:26.021Z,54.83
2018-05-21T09:05:29.327Z,54.29
2018-05-21T09:08:32.633Z,52.65
2018-05-21T09:11:36.710Z,52.40
2018-05-21T09:14:40.017Z,51.19
2018-05-21T09:17:43.336Z,52.59
2018-05-21T09:20:47.434Z,51.90
2018-05-21T09:23:50.733Z,50.47
2018-05-21T09:26:54.076Z,51.06
2018-05-21T09:29:57.378Z,49.83
2018-05-21T09:33:00.695Z,50.18
2018-05-21T09:36:04.002Z,50.02
2018-05-21T09:39:07.350Z,50.89
2018-05-21T09:42:10.657Z,52.15
2018-05-21T09:45:13.969Z,50.00
2018-05-21T09:48:17.280Z,50.24
2018-05-21T09:51:20.590Z,50.78
2018-05-21T09:54:23.913Z,48.77
2018-05-21T09:57:27.978Z,48.23
2018-05-21T10:00:31.298Z,49.14
2018-05-21T10:03:34.610Z,50.99
2018-05-21T10:06:37.952Z,48.17
2018-05-21T10:09:41.262Z,50.46
2018-05-21T10:12:44.572Z,49.57
2018-05-21T10:15:47.882Z,47.98
2018-05-21T10:18:51.190Z,47.96
2018-05-21T10:21:54.511Z,47.11
2018-05-21T10:24:57.813Z,46.37
2018-05-21T10:28:01.134Z,46.54
2018-05-21T10:31:04.450Z,45.66
2018-05-21T10:34:07.770Z,45.66
2018-05-21T10:37:11.159Z,44.94
2018-05-21T10:40:15.190Z,45.12
2018-05-21T10:43:18.488Z,46.11
2018-05-21T10:46:21.818Z,45.00
2018-05-21T10:49:25.117Z,45.57
2018-05-21T10:52:28.449Z,48.05
2018-05-21T10:55:31.757Z,47.24
2018-05-21T10:58:35.093Z,47.22
2018-05-21T11:01:38.430Z,48.57
2018-05-21T11:04:41.829Z,47.81
2018-05-21T11:07:45.110Z,45.12
2018-05-21T11:10:48.497Z,45.99
2018-05-21T11:13:51.782Z,44.30
2018-05-21T11:16:55.090Z,46.48
2018-05-21T11:19:58.409Z,45.64
2018-05-21T11:23:01.715Z,44.79
2018-05-21T11:26:05.033Z,46.09
2018-05-21T11:29:08.395Z,46.51
2018-05-21T11:32:11.697Z,46.48
2018-05-21T11:35:15.018Z,45.94
2018-05-21T11:38:18.376Z,46.91
2018-05-21T11:41:21.676Z,47.55
2018-05-21T11:44:25.002Z,47.38
2018-05-21T11:47:28.311Z,48.48
2018-05-21T11:50:31.645Z,49.38
2018-05-21T11:53:34.956Z,47.03
2018-05-21T11:56:38.272Z,46.79
2018-05-21T11:59:41.577Z,45.10
2018-05-21T12:02:44.921Z,44.67
2018-05-21T12:05:48.330Z,46.59
2018-05-21T12:08:51.638Z,44.59
2018-05-21T12:11:54.962Z,43.01
2018-05-21T12:14:58.266Z,41.78
2018-05-21T12:18:01.632Z,41.82
2018-05-21T12:21:04.936Z,41.78
2018-05-21T12:24:08.282Z,42.29
2018-05-21T12:27:12.359Z,42.31
2018-05-21T12:30:15.681Z,42.74
2018-05-21T12:33:18.994Z,44.33
2018-05-21T12:36:23.085Z,42.50
2018-05-21T12:39:26.405Z,42.72
2018-05-21T12:42:30.499Z,42.69
2018-05-21T12:45:33.812Z,42.67
2018-05-21T12:48:37.898Z,41.65
2018-05-21T12:51:41.213Z,43.15
2018-05-21T12:54:44.544Z,41.27
2018-05-21T12:57:47.861Z,40.70
2018-05-21T13:00:51.188Z,40.78
2018-05-21T13:03:54.503Z,41.27
2018-05-21T13:06:57.828Z,42.20
2018-05-21T13:10:01.142Z,41.16
2018-05-21T13:13:04.572Z,41.53
2018-05-21T13:16:07.891Z,42.49
2018-05-21T13:19:11.222Z,41.46
2018-05-21T13:22:14.530Z,42.80
2018-05-21T13:25:17.867Z,42.38
2018-05-21T13:28:21.179Z,41.93
2018-05-21T13:31:24.493Z,42.62
2018-05-21T13:34:28.572Z,41.54
2018-05-21T13:37:31.911Z,41.83
2018-05-21T13:40:35.218Z,41.01
2018-05-21T13:43:38.541Z,41.28
2018-05-21T13:46:41.847Z,40.18
2018-05-21T13:49:45.198Z,42.61
2018-05-21T13:52:48.514Z,43.50
2018-05-21T13:55:51.828Z,44.15
2018-05-21T13:58:55.189Z,44.13
2018-05-21T14:01:58.492Z,43.73
2018-05-21T14:05:01.816Z,44.24
2018-05-21T14:08:05.151Z,44.00
2018-05-21T14:11:08.465Z,44.49
2018-05-21T14:14:11.792Z,44.59
2018-05-21T14:17:15.187Z,44.90
2018-05-21T14:20:18.450Z,43.95
2018-05-21T14:23:22.516Z,43.85
2018-05-21T14:26:25.837Z,43.24
2018-05-21T14:29:29.249Z,43.43
2018-05-21T14:32:32.493Z,42.10
2018-05-21T14:35:35.798Z,41.92
2018-05-21T14:38:39.112Z,43.19
2018-05-21T14:41:42.434Z,43.54
2018-05-21T14:44:45.754Z,43.04
2018-05-21T14:47:49.833Z,42.65
2018-05-21T14:50:53.155Z,42.97
2018-05-21T14:53:57.237Z,41.90
2018-05-21T14:57:00.553Z,42.46
2018-05-21T15:00:03.885Z,42.11
2018-05-21T15:03:07.213Z,41.59
2018-05-21T15:06:10.538Z,39.18
2018-05-21T15:09:13.864Z,39.42
2018-05-21T15:12:17.941Z,39.60
2018-05-21T15:15:21.257Z,39.54
2018-05-21T15:18:25.344Z,38.07
2018-05-21T15:21:28.665Z,38.03
2018-05-21T15:24:31.985Z,37.69
2018-05-21T15:27:36.067Z,37.92
2018-05-21T15:30:39.393Z,38.25
2018-05-21T15:33:43.465Z,38.50
2018-05-21T15:36:46.799Z,37.83
2018-05-21T15:39:50.108Z,37.37
2018-05-21T15:42:53.425Z,37.25
2018-05-21T15:45:56.725Z,37.32
2018-05-21T15:49:00.814Z,37.49
2018-05-21T15:52:04.138Z,37.66
2018-05-21T15:55:07.452Z,38.48
2018-05-21T15:58:10.773Z,37.62
2018-05-21T16:01:14.079Z,38.15
2018-05-21T16:04:18.201Z,37.76
2018-05-21T16:07:22.278Z,37.86
2018-05-21T16:10:25.614Z,38.07
2018-05-21T16:13:29.682Z,39.17
2018-05-21T16:16:32.999Z,39.10
2018-05-21T16:19:36.318Z,39.41
2018-05-21T16:22:40.401Z,39.63
2018-05-21T16:25:43.744Z,39.93
2018-05-21T16:28:47.073Z,40.82
2018-05-21T16:31:50.402Z,40.48
2018-05-21T16:34:53.722Z,40.30
2018-05-21T16:37:57.801Z,41.11
2018-05-21T16:41:01.119Z,41.65
2018-05-21T16:44:04.425Z,41.93
2018-05-21T16:47:08.532Z,41.97
2018-05-21T16:50:12.609Z,42.29
2018-05-21T16:53:15.940Z,42.14
2018-05-21T16:56:19.245Z,42.58
2018-05-21T16:59:23.326Z,41.31
2018-05-21T17:02:26.643Z,41.72
2018-05-21T17:05:29.988Z,41.89
2018-05-21T17:08:33.301Z,41.94
2018-05-21T17:11:36.710Z,42.80
2018-05-21T17:14:39.942Z,42.49
2018-05-21T17:17:44.020Z,43.06
2018-05-21T17:20:47.337Z,42.37
2018-05-21T17:23:50.664Z,41.01
2018-05-21T17:26:54.754Z,41.91
2018-05-21T17:29:58.061Z,41.92
2018-05-21T17:33:02.140Z,41.29
2018-05-21T17:36:05.445Z,41.92
2018-05-21T17:39:08.766Z,41.72
2018-05-21T17:42:12.845Z,41.28
2018-05-21T17:45:16.154Z,41.02
2018-05-21T17:48:19.479Z,41.55
2018-05-21T17:51:23.558Z,41.30
2018-05-21T17:54:26.869Z,41.39
2018-05-21T17:57:30.173Z,41.27
2018-05-21T18:00:33.493Z,41.55
2018-05-21T18:03:37.605Z,41.98
2018-05-21T18:06:40.902Z,42.32
2018-05-21T18:09:44.196Z,43.09
2018-05-21T18:12:48.290Z,42.95
2018-05-21T18:15:51.598Z,42.97
2018-05-21T18:18:55.826Z,43.14
2018-05-21T18:21:59.933Z,43.90
2018-05-21T18:25:04.019Z,44.34
2018-05-21T18:28:07.333Z,44.83
2018-05-21T18:31:10.637Z,45.18
2018-05-21T18:34:14.719Z,45.70
2018-05-21T18:37:18.054Z,46.54
2018-05-21T18:40:22.135Z,46.62
2018-05-21T18:43:25.459Z,47.05
2018-05-21T18:46:28.765Z,47.51
2018-05-21T18:49:32.849Z,48.15
2018-05-21T18:52:36.157Z,48.77
2018-05-21T18:55:39.476Z,49.20
2018-05-21T18:58:43.566Z,49.52
2018-05-21T19:01:46.869Z,50.26
2018-05-21T19:04:50.186Z,50.56
2018-05-21T19:07:54.269Z,50.63
2018-05-21T19:10:57.584Z,50.81
2018-05-21T19:14:01.679Z,51.38
2018-05-21T19:17:05.009Z,52.01
2018-05-21T19:20:09.099Z,52.64
2018-05-21T19:23:12.401Z,52.86
2018-05-21T19:26:15.715Z,52.78
2018-05-21T19:29:19.790Z,53.57
2018-05-21T19:32:23.113Z,53.52
2018-05-21T19:35:27.189Z,54.12
2018-05-21T19:38:30.517Z,54.28
2018-05-21T19:41:33.833Z,54.57
2018-05-21T19:44:37.168Z,54.85
2018-05-21T19:47:41.237Z,55.04
2018-05-21T19:50:45.324Z,55.54
2018-05-21T19:53:48.656Z,55.76
2018-05-21T19:56:52.724Z,56.00
2018-05-21T19:59:56.099Z,56.30
2018-05-21T20:02:59.370Z,56.15
2018-05-21T20:06:02.678Z,56.56
2018-05-21T20:09:06.005Z,56.77
2018-05-21T20:12:09.320Z,56.71
2018-05-21T20:15:12.642Z,57.11
2018-05-21T20:18:23.314Z,57.15
2018-05-21T20:21:27.397Z,57.17
2018-05-21T20:24:30.738Z,57.08
2018-05-21T20:27:34.059Z,57.59
2018-05-21T20:30:37.377Z,57.55
2018-05-21T20:33:40.720Z,57.62
2018-05-21T20:36:44.817Z,57.89
2018-05-21T20:39:48.127Z,58.23
2018-05-21T20:42:52.209Z,58.94
2018-05-21T20:45:55.522Z,59.05
2018-05-21T20:48:58.849Z,59.21
2018-05-21T20:52:02.173Z,59.38
2018-05-21T20:55:05.495Z,59.55
2018-05-21T20:58:08.798Z,60.13
2018-05-21T21:01:12.134Z,60.34
2018-05-21T21:04:15.473Z,60.43
2018-05-21T21:07:18.785Z,60.60
2018-05-21T21:10:22.096Z,60.96
2018-05-21T21:13:25.419Z,61.39
2018-05-21T21:16:28.729Z,61.73
2018-05-21T21:19:32.046Z,61.84
2018-05-21T21:22:35.349Z,62.24
2018-05-21T21:25:38.687Z,62.51
2018-05-21T21:28:42.769Z,62.61
2018-05-21T21:31:46.085Z,62.85
2018-05-21T21:34:49.411Z,63.23
2018-05-21T21:37:52.722Z,63.44
2018-05-21T21:40:56.054Z,63.98
2018-05-21T21:43:59.369Z,64.37
2018-05-21T21:47:02.692Z,65.19
2018-05-21T21:50:06.901Z,65.84
2018-05-21T21:53:10.978Z,66.37
2018-05-21T21:56:14.298Z,66.91
2018-05-21T21:59:17.613Z,67.31
2018-05-21T22:02:21.698Z,67.60
2018-05-21T22:05:25.014Z,67.90
2018-05-21T22:08:29.109Z,67.88
2018-05-21T22:11:32.422Z,68.23
2018-05-21T22:14:36.511Z,68.29
2018-05-21T22:17:39.853Z,69.14
2018-05-21T22:20:43.930Z,69.53
2018-05-21T22:23:47.245Z,69.42
2018-05-21T22:26:51.321Z,69.71
2018-05-21T22:29:54.637Z,70.08
2018-05-21T22:32:57.945Z,70.66
2018-05-21T22:36:01.274Z,71.33
2018-05-21T22:39:04.589Z,71.41
2018-05-21T22:42:07.905Z,71.37
2018-05-21T22:45:11.245Z,72.11
2018-05-21T22:48:15.324Z,72.47
2018-05-21T22:51:18.640Z,72.77
2018-05-21T22:54:35.571Z,73.15
2018-05-21T22:57:38.876Z,73.61
2018-05-21T23:00:42.954Z,74.13
2018-05-21T23:03:46.274Z,74.76
2018-05-21T23:06:50.357Z,74.98
2018-05-21T23:09:53.683Z,75.35
2018-05-21T23:12:57.006Z,75.60
2018-05-21T23:16:00.327Z,75.83
2018-05-21T23:19:04.397Z,76.19
2018-05-21T23:22:08.483Z,76.37
2018-05-21T23:25:11.822Z,76.47
2018-05-21T23:28:15.890Z,76.59
2018-05-21T23:31:19.209Z,77.00
2018-05-21T23:34:22.524Z,77.29
2018-05-21T23:37:26.594Z,77.65
2018-05-21T23:40:29.914Z,77.79
2018-05-21T23:43:33.233Z,78.09
2018-05-21T23:46:37.319Z,78.21
2018-05-21T23:49:40.646Z,78.13
2018-05-21T23:52:44.712Z,78.38
2018-05-21T23:55:48.064Z,78.48
2018-05-21T23:58:52.124Z,78.45
